Overview Statistics Trail Chart Weather Telemetry Raw packets
 

This is the latest recevied weather packets stored in our database for station/object TB1YZC-13. If no packets are shown the sender has not sent any weather packets the latest 10 day(s).

<< 28 29 30 31 32 33 34 >>
Time Temp. Humidity Pressure Rain* Wind** Luminosity Snow
1788225148 20° C 91% 1018.1 hPa - - - -
1788224545 19.44° C 92% 1018.3 hPa - - - -
1788223942 18.89° C 94% 1018.2 hPa - - - -
1788223339 19.44° C 93% 1018.3 hPa - - - -
1788222736 20° C 90% 1018.3 hPa - - - -
1788222133 20° C 91% 1018.3 hPa - - - -
1788221530 19.44° C 92% 1018.3 hPa - - - -
1788220926 20° C 88% 1018.2 hPa - - - -
1788220323 20° C 88% 1018.2 hPa - - - -
1788219720 20° C 89% 1018.3 hPa - - - -
1788219117 20.56° C 88% 1018.3 hPa - - - -
1788218514 20.56° C 88% 1018.3 hPa - - - -
1788217911 20° C 91% 1018.3 hPa - - - -
1788217308 20° C 92% 1018.4 hPa - - - -
1788216704 20° C 90% 1018.4 hPa - - - -
1788216101 20.56° C 88% 1018.4 hPa - - - -
1788215498 21.11° C 88% 1018.5 hPa - - - -
1788214895 20.56° C 92% 1018.6 hPa - - - -
1788214292 20° C 92% 1018.6 hPa - - - -
1788213689 20.56° C 90% 1018.6 hPa - - - -
1788213086 20.56° C 90% 1018.7 hPa - - - -
1788212483 20.56° C 90% 1018.7 hPa - - - -
1788211880 21.11° C 88% 1018.6 hPa - - - -
1788211297 21.67° C 87% 1018.7 hPa - - - -
1788210674 21.11° C 88% 1018.7 hPa - - - -

* Rain since midnight (hover to see other rain measurements)
** Current wind speed in m/s (hover to see current wind gust speed)